sensor_id;sensor_type;location;lat;lon;timestamp;temperature;humidity
18662;DHT22;61528;49.456;11.098;2022-07-23T00:00:01;23.40;99.00
18662;DHT22;61528;49.456;11.098;2022-07-23T00:02:27;23.40;99.90
18662;DHT22;61528;49.456;11.098;2022-07-23T00:04:53;23.20;99.90
18662;DHT22;61528;49.456;11.098;2022-07-23T00:07:19;23.10;99.90
18662;DHT22;61528;49.456;11.098;2022-07-23T00:09:45;22.90;99.90
18662;DHT22;61528;49.456;11.098;2022-07-23T00:12:11;22.80;99.90
18662;DHT22;61528;49.456;11.098;2022-07-23T00:14:36;22.70;99.90
18662;DHT22;61528;49.456;11.098;2022-07-23T00:17:02;22.70;99.90
18662;DHT22;61528;49.456;11.098;2022-07-23T00:19:28;22.70;99.90
18662;DHT22;61528;49.456;11.098;2022-07-23T00:21:54;22.60;99.90
18662;DHT22;61528;49.456;11.098;2022-07-23T00:24:21;22.70;99.90
18662;DHT22;61528;49.456;11.098;2022-07-23T00:26:46;22.70;99.90
18662;DHT22;61528;49.456;11.098;2022-07-23T00:29:12;22.50;99.90
18662;DHT22;61528;49.456;11.098;2022-07-23T00:31:38;22.20;99.90
18662;DHT22;61528;49.456;11.098;2022-07-23T00:34:04;22.00;99.90
18662;DHT22;61528;49.456;11.098;2022-07-23T00:36:29;21.50;99.90
18662;DHT22;61528;49.456;11.098;2022-07-23T00:38:56;21.60;99.90
18662;DHT22;61528;49.456;11.098;2022-07-23T00:41:23;21.70;99.90
18662;DHT22;61528;49.456;11.098;2022-07-23T00:43:49;21.80;99.90
18662;DHT22;61528;49.456;11.098;2022-07-23T00:46:22;21.90;99.90
18662;DHT22;61528;49.456;11.098;2022-07-23T00:48:48;22.00;99.90
18662;DHT22;61528;49.456;11.098;2022-07-23T00:51:17;21.90;99.90
18662;DHT22;61528;49.456;11.098;2022-07-23T00:53:44;21.90;99.90
18662;DHT22;61528;49.456;11.098;2022-07-23T00:56:10;21.90;99.90
18662;DHT22;61528;49.456;11.098;2022-07-23T00:58:36;21.90;99.90
18662;DHT22;61528;49.456;11.098;2022-07-23T01:01:03;21.80;99.90
18662;DHT22;61528;49.456;11.098;2022-07-23T01:03:29;21.90;99.90
18662;DHT22;61528;49.456;11.098;2022-07-23T01:05:56;21.90;99.90
18662;DHT22;61528;49.456;11.098;2022-07-23T01:08:22;21.80;99.90
18662;DHT22;61528;49.456;11.098;2022-07-23T01:10:48;21.90;99.90
18662;DHT22;61528;49.456;11.098;2022-07-23T01:13:14;21.70;99.90
18662;DHT22;61528;49.456;11.098;2022-07-23T01:15:40;21.50;99.90
18662;DHT22;61528;49.456;11.098;2022-07-23T01:18:07;21.70;99.90
18662;DHT22;61528;49.456;11.098;2022-07-23T01:20:33;21.60;99.90
18662;DHT22;61528;49.456;11.098;2022-07-23T01:23:00;21.60;99.90
18662;DHT22;61528;49.456;11.098;2022-07-23T01:25:26;21.80;99.90
18662;DHT22;61528;49.456;11.098;2022-07-23T01:27:53;21.80;99.90
18662;DHT22;61528;49.456;11.098;2022-07-23T01:30:19;21.80;99.90
18662;DHT22;61528;49.456;11.098;2022-07-23T01:32:45;21.80;99.90
18662;DHT22;61528;49.456;11.098;2022-07-23T01:35:11;21.70;99.90
18662;DHT22;61528;49.456;11.098;2022-07-23T01:37:38;21.70;99.90
18662;DHT22;61528;49.456;11.098;2022-07-23T01:40:05;21.50;99.90
18662;DHT22;61528;49.456;11.098;2022-07-23T01:42:31;21.50;99.90
18662;DHT22;61528;49.456;11.098;2022-07-23T01:44:57;21.60;99.90
18662;DHT22;61528;49.456;11.098;2022-07-23T01:47:23;21.60;99.90
18662;DHT22;61528;49.456;11.098;2022-07-23T01:49:49;21.50;99.90
18662;DHT22;61528;49.456;11.098;2022-07-23T01:52:14;21.20;99.90
18662;DHT22;61528;49.456;11.098;2022-07-23T01:54:40;21.10;99.90
18662;DHT22;61528;49.456;11.098;2022-07-23T01:57:07;21.00;99.90
18662;DHT22;61528;49.456;11.098;2022-07-23T01:59:34;21.00;99.90
18662;DHT22;61528;49.456;11.098;2022-07-23T02:02:00;21.00;99.90
18662;DHT22;61528;49.456;11.098;2022-07-23T02:04:26;21.10;99.90
18662;DHT22;61528;49.456;11.098;2022-07-23T02:06:55;21.00;99.90
18662;DHT22;61528;49.456;11.098;2022-07-23T02:09:20;21.10;99.90
18662;DHT22;61528;49.456;11.098;2022-07-23T02:11:47;21.10;99.90
18662;DHT22;61528;49.456;11.098;2022-07-23T02:14:13;21.10;99.90
18662;DHT22;61528;49.456;11.098;2022-07-23T02:16:38;21.10;99.90
18662;DHT22;61528;49.456;11.098;2022-07-23T02:19:04;21.20;99.90
18662;DHT22;61528;49.456;11.098;2022-07-23T02:21:30;21.30;99.90
18662;DHT22;61528;49.456;11.098;2022-07-23T02:23:56;21.40;99.90
18662;DHT22;61528;49.456;11.098;2022-07-23T02:26:22;21.30;99.90
18662;DHT22;61528;49.456;11.098;2022-07-23T02:28:48;21.40;99.90
18662;DHT22;61528;49.456;11.098;2022-07-23T02:31:14;21.30;99.90
18662;DHT22;61528;49.456;11.098;2022-07-23T02:33:39;21.40;99.90
18662;DHT22;61528;49.456;11.098;2022-07-23T02:36:05;21.40;99.90
18662;DHT22;61528;49.456;11.098;2022-07-23T02:38:31;21.30;99.90
18662;DHT22;61528;49.456;11.098;2022-07-23T02:40:57;21.10;99.90
18662;DHT22;61528;49.456;11.098;2022-07-23T02:43:23;21.10;99.90
18662;DHT22;61528;49.456;11.098;2022-07-23T02:45:49;21.10;99.90
18662;DHT22;61528;49.456;11.098;2022-07-23T02:48:15;21.10;99.90
18662;DHT22;61528;49.456;11.098;2022-07-23T02:50:41;21.10;99.90
18662;DHT22;61528;49.456;11.098;2022-07-23T02:53:07;21.10;99.90
18662;DHT22;61528;49.456;11.098;2022-07-23T02:55:32;21.00;99.90
18662;DHT22;61528;49.456;11.098;2022-07-23T02:57:58;20.90;99.90
18662;DHT22;61528;49.456;11.098;2022-07-23T03:00:24;20.80;99.90
18662;DHT22;61528;49.456;11.098;2022-07-23T03:02:50;20.70;99.90
18662;DHT22;61528;49.456;11.098;2022-07-23T03:05:16;20.60;99.90
18662;DHT22;61528;49.456;11.098;2022-07-23T03:07:42;20.60;99.90
18662;DHT22;61528;49.456;11.098;2022-07-23T03:10:08;20.70;99.90
18662;DHT22;61528;49.456;11.098;2022-07-23T03:12:34;20.70;99.90
18662;DHT22;61528;49.456;11.098;2022-07-23T03:14:59;20.50;99.90
18662;DHT22;61528;49.456;11.098;2022-07-23T03:17:25;20.50;99.90
18662;DHT22;61528;49.456;11.098;2022-07-23T03:19:51;20.60;99.90
18662;DHT22;61528;49.456;11.098;2022-07-23T03:22:17;20.60;99.90
18662;DHT22;61528;49.456;11.098;2022-07-23T03:24:43;20.40;99.90
18662;DHT22;61528;49.456;11.098;2022-07-23T03:27:29;20.40;99.90
18662;DHT22;61528;49.456;11.098;2022-07-23T03:29:57;20.30;99.90
18662;DHT22;61528;49.456;11.098;2022-07-23T03:32:23;20.20;99.90
18662;DHT22;61528;49.456;11.098;2022-07-23T03:34:50;20.10;99.90
18662;DHT22;61528;49.456;11.098;2022-07-23T03:37:17;20.20;99.90
18662;DHT22;61528;49.456;11.098;2022-07-23T03:39:43;20.10;99.90
18662;DHT22;61528;49.456;11.098;2022-07-23T03:42:09;20.10;99.90
18662;DHT22;61528;49.456;11.098;2022-07-23T03:44:35;20.10;99.90
18662;DHT22;61528;49.456;11.098;2022-07-23T03:47:04;20.10;99.90
18662;DHT22;61528;49.456;11.098;2022-07-23T03:49:30;20.10;99.90
18662;DHT22;61528;49.456;11.098;2022-07-23T03:51:56;20.10;99.90
